Fort Stockton Pecos County Airport
KFST : rendu visible

Aérodrome :











RETROUVEZ-NOUS SUR...

 
LOGIN :

S'inscrire | Disclaimer

   EN    FR    IT 

 









Légende :    VFR   VFR Marginal   IFR   IFR Intensif   IFR Très Intensif
Visi : 
Plafond : 
>= 8 km
>= 3000ft
5 à 8 km
1000 à 3000 ft
1500m à 5 km
500 à 1000 ft
800 à 1500m
200 à 500 ft
< 800m
< 200 ft
Symboles :   Orages  Brouillard  Fortes neiges  Fortes précipitations  Vent > 20 kt






- Altitude de l'aérodrome : 3011 ft


KFST - Fort Stockton Pecos County

DERNIER METAR :
  • 260853Z AUTO 25009KT 10SM CLR 11/M02 A3006 RMK AO2 SLP146 T01061022 53002

METARs EXPIRÉS :
  • 260753Z AUTO 24010KT 10SM CLR 10/M01 A3006 RMK AO2 SLP146 T01001011
  • 260653Z AUTO 23009KT 10SM CLR 10/M02 A3005 RMK AO2 SLP145 T01001017

TAF KFST
Valide du 26 à 06h jusqu'au 27 à 06h UTC


260526Z 2606/2706 25009KT P6SM SKC



MET'MAP, la Météo Aéronautique d'un coup d'oeil ! - Copyright ORBIFLY Décembre 2007 - Disclaimer

ORBIFLY MET'MAP TEAM :

Programmation & Développement : Alexandra Zaïnal
Sur une idée originale de : Baudouin d'Aumeries
Assistance à la programmation : Marc-Olivier Méhu
Soutien technique & logistique : Manuel Goepfert

Contact : metmap@orbifly.com




SOURCES & CREDITS :

   NOAA       Earth
Advisory